Main page
Satellite images 15-day forecastsClimateMarine weather Cyclones Lightning AirportsFAQ Newsletter About
Weather : Europe Africa North America South America Asia Australia-Oceania Others
Languages Contact

Alpine, Texas, United States

Alpine-Casparis Municipal Airport

latitude: 30-23-03N, longitude: 103-41-00W, elevation: 1376 m


METAR: KE38 200115Z AUTO 05003KT 10SM CLR 08/M01 A3021 RMK AO2 T00751015
TAF: missing

Time: 19:30 (01:30 UTC)

Current weather observation

The report was made 15 minutes ago, at 01:15 UTC
Wind 3 kt from the Northeast
Temperature 8°C
Humidity 53%
Pressure 1023 hPa
Visibility: 16.1 km
Clear sky

Change units
The information on this site is subject to a disclaimer
Weather : Europe Africa North America South America Asia Australia-Oceania Others
Satellite images 15-day forecastsClimateMarine weather Cyclones Lightning AirportsFAQ Languages Contact Newsletter About